createdAt,value
2017-12-03T11:17:30.936Z,61.9
2017-12-03T11:17:42.874Z,61.9
2017-12-03T11:17:55.941Z,61.9
2017-12-03T11:18:11.575Z,61.9
2017-12-03T11:18:23.840Z,61.9
2017-12-03T11:18:35.512Z,61.9
2017-12-03T11:18:48.689Z,61.9
2017-12-03T11:19:01.803Z,61.9
2017-12-03T11:19:14.896Z,61.9
2017-12-03T11:19:30.448Z,61.9
2017-12-03T11:19:46.845Z,61.9
2017-12-03T11:19:59.262Z,61.9
2017-12-03T11:20:12.339Z,61.9
2017-12-03T11:20:25.515Z,61.9
2017-12-03T11:20:38.615Z,61.9
2017-12-03T11:20:51.830Z,61.9
2017-12-03T11:21:05.004Z,61.9
2017-12-03T11:21:18.049Z,61.9
2017-12-03T11:21:29.610Z,61.9
2017-12-03T11:21:46.883Z,61.9
2017-12-03T11:21:59.093Z,61.9
2017-12-03T11:22:10.849Z,61.9
2017-12-03T11:22:23.780Z,61.9
2017-12-03T11:22:35.340Z,61.9
2017-12-03T11:22:46.917Z,61.9
2017-12-03T11:23:02.502Z,61.9
2017-12-03T11:23:14.971Z,61.9
2017-12-03T11:23:28.053Z,61.9
2017-12-03T11:23:41.179Z,61.9
2017-12-03T11:23:54.311Z,61.9
2017-12-03T11:24:05.985Z,61.9
2017-12-03T11:24:23.057Z,67.5
2017-12-03T11:24:35.381Z,67.5
2017-12-03T11:24:46.933Z,67.5
2017-12-03T11:25:01.102Z,67.5
2017-12-03T11:25:13.287Z,67.5
2017-12-03T11:25:24.948Z,67.5
2017-12-03T11:25:38.031Z,67.5
2017-12-03T11:25:51.182Z,67.5
2017-12-03T11:26:04.307Z,67.5
2017-12-03T11:26:21.504Z,67.5
2017-12-03T11:26:33.806Z,67.5
2017-12-03T11:26:46.904Z,67.5
2017-12-03T11:27:02.539Z,67.5
2017-12-03T11:27:16.460Z,67.5
2017-12-03T11:27:29.611Z,67.5
2017-12-03T11:27:42.776Z,67.5
2017-12-03T11:27:55.927Z,67.5
2017-12-03T11:28:08.993Z,67.5
2017-12-03T11:28:24.701Z,67.5
2017-12-03T11:28:36.972Z,67.5
2017-12-03T11:28:54.121Z,67.5
2017-12-03T11:29:10.388Z,67.5
2017-12-03T11:29:26.833Z,67.5
2017-12-03T11:29:39.093Z,67.5
2017-12-03T11:29:52.232Z,67.5
2017-12-03T11:30:07.949Z,67.5
2017-12-03T11:30:20.178Z,67.5
2017-12-03T11:30:35.773Z,67.5
2017-12-03T11:30:48.140Z,67.5
2017-12-03T11:31:05.211Z,67.5
2017-12-03T11:31:21.597Z,67.5
2017-12-03T11:31:38.072Z,67.5
2017-12-03T11:31:50.397Z,67.5
2017-12-03T11:32:03.558Z,67.5
2017-12-03T11:32:20.699Z,67.5
2017-12-03T11:32:37.041Z,67.5
2017-12-03T11:32:49.429Z,67.5
2017-12-03T11:33:06.530Z,67.5
2017-12-03T11:33:18.913Z,67.5
2017-12-03T11:33:32.043Z,67.5
2017-12-03T11:33:49.881Z,67.5
2017-12-03T11:34:05.440Z,67.5
2017-12-03T11:34:21.842Z,67.5
2017-12-03T11:34:38.232Z,67.5
2017-12-03T11:34:54.725Z,67.5
2017-12-03T11:35:07.121Z,67.5
2017-12-03T11:35:20.093Z,67.5
2017-12-03T11:35:33.235Z,67.5
2017-12-03T11:35:46.402Z,67.5
2017-12-03T11:36:03.754Z,67.5
2017-12-03T11:36:15.953Z,67.5
2017-12-03T11:36:32.995Z,67.5
2017-12-03T11:36:45.345Z,67.5
2017-12-03T11:36:58.648Z,67.5
2017-12-03T11:37:11.729Z,67.5
2017-12-03T11:37:28.891Z,67.5
2017-12-03T11:37:41.281Z,67.5
2017-12-03T11:37:54.416Z,73.1
2017-12-03T11:38:11.562Z,73.1
2017-12-03T11:38:28.005Z,73.1
2017-12-03T11:38:44.433Z,73.1
2017-12-03T11:38:56.603Z,73.1
2017-12-03T11:39:09.813Z,73.1
2017-12-03T11:39:22.936Z,73.1
2017-12-03T11:39:36.161Z,73.1
2017-12-03T11:39:53.164Z,73.1
2017-12-03T11:40:05.545Z,73.1
2017-12-03T11:40:17.099Z,73.1
2017-12-03T11:40:30.311Z,78.7
2017-12-03T11:40:43.475Z,78.7
2017-12-03T11:41:00.577Z,78.7
2017-12-03T11:41:12.993Z,78.7
2017-12-03T11:41:30.114Z,78.7
2017-12-03T11:41:46.993Z,78.7
2017-12-03T11:41:58.825Z,78.7
2017-12-03T11:42:11.968Z,78.7
2017-12-03T11:42:25.206Z,78.7
2017-12-03T11:42:42.228Z,78.7
2017-12-03T11:42:58.656Z,78.7
2017-12-03T11:43:14.974Z,78.7
2017-12-03T11:43:31.256Z,78.7
2017-12-03T11:43:43.664Z,78.7
2017-12-03T11:43:56.781Z,78.7
2017-12-03T11:44:24.047Z,78.7
2017-12-03T11:44:39.926Z,78.7
2017-12-03T11:44:52.223Z,78.7
2017-12-03T11:45:03.811Z,78.7
2017-12-03T11:45:20.926Z,78.7
2017-12-03T11:45:33.352Z,78.7
2017-12-03T11:45:46.549Z,78.7
2017-12-03T11:45:59.790Z,78.7
2017-12-03T11:46:12.875Z,78.7
2017-12-03T11:46:30.021Z,84.4
2017-12-03T11:46:42.337Z,84.4
2017-12-03T11:46:55.513Z,84.4
2017-12-03T11:47:08.637Z,84.4
2017-12-03T11:47:21.840Z,84.4
2017-12-03T11:47:38.951Z,84.4
2017-12-03T11:47:51.278Z,84.4
2017-12-03T11:48:04.451Z,84.4
2017-12-03T11:48:17.729Z,84.4
2017-12-03T11:48:34.762Z,84.4
2017-12-03T11:48:51.058Z,84.4
2017-12-03T11:49:03.371Z,84.4
2017-12-03T11:49:16.486Z,84.4
2017-12-03T11:49:28.115Z,84.4
2017-12-03T11:49:41.201Z,84.4
2017-12-03T11:49:56.895Z,84.4
2017-12-03T11:50:09.169Z,84.4
2017-12-03T11:50:30.695Z,84.4
2017-12-03T11:50:43.480Z,78.7
2017-12-03T11:50:56.639Z,78.7
2017-12-03T11:51:09.985Z,78.7
2017-12-03T11:51:22.979Z,78.7
2017-12-03T11:51:36.134Z,78.7
2017-12-03T11:51:49.283Z,78.7
2017-12-03T11:52:02.609Z,84.4
2017-12-03T11:52:15.577Z,84.4
2017-12-03T11:52:32.715Z,84.4
2017-12-03T11:52:45.163Z,84.4
2017-12-03T11:52:58.279Z,84.4
2017-12-03T11:53:15.374Z,84.4
2017-12-03T11:53:27.697Z,90
2017-12-03T11:53:44.850Z,90
2017-12-03T11:53:57.267Z,90
2017-12-03T11:54:10.431Z,90
2017-12-03T11:54:27.585Z,90
2017-12-03T11:54:40.997Z,90
2017-12-03T11:54:57.124Z,90
2017-12-03T11:55:09.604Z,90
2017-12-03T11:55:26.633Z,84.4
2017-12-03T11:55:42.949Z,84.4
2017-12-03T11:55:55.326Z,84.4
2017-12-03T11:56:08.449Z,84.4
2017-12-03T11:56:21.605Z,84.4
2017-12-03T11:56:34.858Z,84.4
2017-12-03T11:56:48.485Z,78.7
2017-12-03T11:57:01.256Z,78.7
2017-12-03T11:57:14.186Z,78.7
2017-12-03T11:57:31.454Z,78.7
2017-12-03T11:57:47.657Z,78.7
2017-12-03T11:58:00.093Z,78.7
2017-12-03T11:58:13.199Z,78.7
2017-12-03T11:58:26.322Z,73.1
2017-12-03T11:58:39.469Z,73.1
2017-12-03T11:58:56.705Z,73.1
2017-12-03T11:59:13.024Z,73.1
2017-12-03T11:59:25.369Z,73.1
2017-12-03T11:59:42.512Z,73.1
2017-12-03T11:59:54.885Z,73.1
2017-12-03T12:00:08.617Z,73.1
2017-12-03T12:00:21.166Z,73.1
2017-12-03T12:00:34.377Z,73.1
2017-12-03T12:00:47.456Z,73.1
2017-12-03T12:00:58.964Z,73.1
2017-12-03T12:01:14.573Z,73.1
2017-12-03T12:01:27.018Z,73.1
2017-12-03T12:01:40.078Z,73.1
2017-12-03T12:01:53.262Z,73.1
2017-12-03T12:02:06.435Z,73.1
2017-12-03T12:02:19.637Z,73.1
2017-12-03T12:02:32.807Z,73.1
2017-12-03T12:02:49.885Z,73.1
2017-12-03T12:03:02.390Z,73.1
2017-12-03T12:03:15.497Z,73.1
2017-12-03T12:03:32.635Z,73.1
2017-12-03T12:03:48.887Z,73.1
2017-12-03T12:04:01.311Z,73.1
2017-12-03T12:04:14.589Z,73.1
2017-12-03T12:04:27.634Z,73.1
2017-12-03T12:04:44.706Z,73.1
2017-12-03T12:04:57.055Z,73.1
2017-12-03T12:05:10.316Z,73.1
2017-12-03T12:05:27.470Z,73.1
2017-12-03T12:05:39.785Z,73.1
2017-12-03T12:05:53.013Z,67.5
2017-12-03T12:06:10.176Z,67.5
2017-12-03T12:06:22.441Z,67.5
2017-12-03T12:06:39.723Z,67.5
2017-12-03T12:06:51.908Z,61.9
2017-12-03T12:07:05.324Z,61.9
2017-12-03T12:07:18.887Z,61.9
2017-12-03T12:07:31.483Z,61.9
2017-12-03T12:07:44.963Z,56.2
2017-12-03T12:07:57.866Z,56.2
2017-12-03T12:08:15.015Z,56.2
2017-12-03T12:08:27.290Z,56.2
2017-12-03T12:08:40.450Z,56.2
2017-12-03T12:08:53.534Z,61.9
2017-12-03T12:09:06.741Z,61.9
2017-12-03T12:09:19.978Z,61.9
2017-12-03T12:09:36.980Z,61.9
2017-12-03T12:09:53.408Z,61.9
2017-12-03T12:10:05.788Z,61.9
2017-12-03T12:10:19.344Z,61.9
2017-12-03T12:10:32.057Z,61.9
2017-12-03T12:10:45.139Z,61.9
2017-12-03T12:10:58.312Z,61.9
2017-12-03T12:11:11.395Z,61.9
2017-12-03T12:11:23.141Z,61.9
2017-12-03T12:11:36.270Z,61.9
2017-12-03T12:11:49.336Z,61.9
2017-12-03T12:12:06.800Z,61.9
2017-12-03T12:12:18.900Z,61.9
2017-12-03T12:12:32.547Z,61.9
2017-12-03T12:12:45.051Z,61.9
2017-12-03T12:13:02.317Z,61.9
2017-12-03T12:13:18.621Z,61.9
2017-12-03T12:13:30.970Z,61.9
2017-12-03T12:13:44.075Z,67.5
2017-12-03T12:13:57.505Z,67.5
2017-12-03T12:18:28.086Z,67.5
2017-12-03T12:18:45.183Z,73.1
2017-12-03T12:18:57.491Z,73.1
2017-12-03T12:19:10.778Z,73.1
2017-12-03T12:19:23.819Z,73.1
2017-12-03T12:19:37.071Z,73.1
2017-12-03T12:19:50.618Z,67.5
2017-12-03T12:20:03.356Z,67.5
2017-12-03T12:20:16.575Z,67.5
2017-12-03T12:20:29.661Z,67.5
2017-12-03T12:20:42.799Z,67.5
2017-12-03T12:20:55.922Z,67.5
2017-12-03T12:21:09.116Z,67.5
2017-12-03T12:21:22.370Z,67.5
2017-12-03T12:21:39.446Z,67.5
2017-12-03T12:21:51.827Z,67.5
2017-12-03T12:22:09.005Z,67.5
2017-12-03T12:22:21.394Z,67.5
2017-12-03T12:22:34.540Z,67.5
2017-12-03T12:22:47.621Z,67.5
2017-12-03T12:23:00.724Z,67.5
2017-12-03T12:23:13.056Z,67.5
2017-12-03T12:23:29.455Z,67.5
2017-12-03T12:23:41.888Z,67.5
2017-12-03T12:23:59.021Z,67.5
2017-12-03T12:24:15.434Z,67.5
2017-12-03T12:24:27.704Z,67.5
2017-12-03T12:24:40.878Z,67.5
2017-12-03T12:24:54.022Z,61.9
2017-12-03T12:25:07.085Z,61.9
2017-12-03T12:25:20.311Z,61.9
2017-12-03T12:25:33.489Z,61.9
2017-12-03T12:25:50.545Z,61.9
2017-12-03T12:26:02.969Z,61.9
2017-12-03T12:26:20.123Z,61.9
2017-12-03T12:26:32.629Z,61.9
2017-12-03T12:26:45.594Z,61.9
2017-12-03T12:26:58.666Z,61.9
2017-12-03T12:27:10.303Z,56.2
2017-12-03T12:27:27.532Z,56.2
2017-12-03T12:27:43.788Z,56.2
2017-12-03T12:27:56.043Z,56.2
2017-12-03T12:28:11.728Z,56.2
2017-12-03T12:28:28.510Z,56.2
2017-12-03T12:28:44.366Z,56.2
2017-12-03T12:28:56.789Z,56.2
2017-12-03T12:29:13.963Z,56.2
2017-12-03T12:29:26.328Z,56.2
2017-12-03T12:29:39.564Z,56.2
2017-12-03T12:29:58.109Z,56.2
2017-12-03T12:30:10.552Z,56.2
2017-12-03T12:30:24.403Z,56.2
2017-12-03T12:30:36.843Z,56.2
2017-12-03T12:30:54.178Z,56.2
2017-12-03T12:31:06.409Z,56.2
2017-12-03T12:31:19.557Z,56.2
2017-12-03T12:31:32.678Z,56.2
2017-12-03T12:31:46.802Z,56.2
2017-12-03T12:31:59.032Z,56.2
2017-12-03T12:32:12.162Z,56.2
2017-12-03T12:32:25.335Z,56.2
2017-12-03T12:32:38.615Z,56.2
2017-12-03T12:32:51.746Z,56.2
2017-12-03T12:33:04.887Z,56.2
2017-12-03T12:33:17.993Z,56.2
2017-12-03T12:33:31.182Z,56.2
2017-12-03T12:33:48.268Z,50.6
2017-12-03T12:34:00.699Z,50.6
2017-12-03T12:34:13.870Z,50.6
2017-12-03T12:34:27.042Z,50.6
2017-12-03T12:34:40.040Z,50.6
2017-12-03T12:34:57.339Z,50.6
2017-12-03T12:35:09.659Z,50.6
2017-12-03T12:35:22.864Z,50.6
2017-12-03T12:35:36.100Z,50.6
2017-12-03T12:35:49.172Z,50.6
2017-12-03T12:36:06.228Z,50.6
2017-12-03T12:36:22.638Z,50.6
2017-12-03T12:36:34.945Z,50.6
2017-12-03T12:36:48.182Z,50.6
2017-12-03T12:37:01.229Z,50.6
2017-12-03T12:37:18.483Z,50.6
2017-12-03T12:37:34.814Z,50.6
2017-12-03T12:37:47.131Z,50.6
2017-12-03T12:38:04.244Z,56.2
2017-12-03T12:38:16.589Z,56.2
2017-12-03T12:38:29.750Z,56.2
2017-12-03T12:38:42.992Z,56.2
2017-12-03T12:38:56.039Z,56.2
2017-12-03T12:39:09.192Z,56.2
2017-12-03T12:39:22.671Z,56.2
2017-12-03T12:39:35.484Z,56.2
2017-12-03T12:39:47.094Z,56.2
2017-12-03T12:40:00.281Z,56.2
2017-12-03T12:40:17.926Z,56.2
2017-12-03T12:40:29.811Z,56.2
2017-12-03T12:40:46.909Z,56.2
2017-12-03T12:41:03.993Z,56.2
2017-12-03T12:41:15.664Z,56.2
2017-12-03T12:41:28.764Z,50.6
2017-12-03T12:41:42.215Z,50.6
2017-12-03T12:41:55.301Z,50.6
2017-12-03T12:42:12.333Z,50.6
2017-12-03T12:42:24.626Z,50.6
2017-12-03T12:42:37.771Z,50.6
2017-12-03T12:42:51.031Z,50.6
2017-12-03T12:43:04.063Z,50.6
2017-12-03T12:43:17.153Z,50.6
2017-12-03T12:43:32.716Z,50.6
2017-12-03T12:43:45.106Z,50.6
2017-12-03T12:43:58.233Z,50.6
2017-12-03T12:44:09.963Z,50.6
2017-12-03T12:44:23.059Z,50.6
2017-12-03T12:44:40.148Z,50.6
2017-12-03T12:44:56.455Z,50.6
2017-12-03T12:45:08.821Z,50.6
2017-12-03T12:45:25.905Z,50.6
2017-12-03T12:45:42.289Z,50.6
2017-12-03T12:45:54.607Z,50.6
2017-12-03T12:46:06.252Z,50.6
2017-12-03T12:46:19.439Z,50.6
2017-12-03T12:46:32.524Z,50.6
2017-12-03T12:46:45.649Z,50.6
2017-12-03T12:46:59.007Z,50.6
2017-12-03T12:47:12.128Z,50.6
2017-12-03T12:47:29.801Z,50.6
2017-12-03T12:47:41.569Z,56.2
2017-12-03T12:47:58.713Z,56.2
2017-12-03T12:48:11.165Z,56.2
2017-12-03T12:48:28.297Z,56.2
2017-12-03T12:48:40.522Z,56.2
2017-12-03T12:48:57.655Z,56.2
2017-12-03T12:49:10.093Z,56.2
2017-12-03T12:49:23.251Z,56.2
2017-12-03T12:49:40.316Z,61.9
2017-12-03T12:49:52.708Z,61.9
2017-12-03T12:50:09.851Z,61.9
2017-12-03T12:50:26.224Z,61.9
2017-12-03T12:50:42.535Z,61.9
2017-12-03T12:50:55.232Z,61.9
2017-12-03T12:51:08.050Z,67.5
2017-12-03T12:51:21.203Z,67.5
2017-12-03T12:51:34.378Z,67.5
2017-12-03T12:51:51.433Z,67.5
2017-12-03T12:52:07.844Z,67.5
2017-12-03T12:52:24.263Z,67.5
2017-12-03T12:52:37.491Z,67.5
2017-12-03T12:52:50.877Z,67.5
2017-12-03T12:53:02.917Z,67.5
2017-12-03T12:53:20.137Z,67.5
2017-12-03T12:53:32.431Z,61.9
2017-12-03T12:53:45.600Z,61.9
2017-12-03T12:53:58.818Z,61.9
2017-12-03T12:54:15.861Z,61.9
2017-12-03T12:54:28.251Z,61.9
2017-12-03T12:54:41.445Z,56.2
2017-12-03T12:54:54.588Z,56.2
2017-12-03T12:55:07.632Z,56.2
2017-12-03T12:55:21.017Z,56.2
2017-12-03T12:55:34.060Z,56.2
2017-12-03T12:55:51.138Z,56.2
2017-12-03T12:56:07.454Z,56.2
2017-12-03T12:56:19.898Z,50.6
2017-12-03T12:56:37.097Z,50.6
2017-12-03T12:56:53.365Z,50.6
2017-12-03T12:57:05.659Z,50.6
2017-12-03T12:57:21.260Z,50.6
2017-12-03T12:57:37.593Z,50.6
2017-12-03T12:57:53.949Z,50.6
2017-12-03T12:58:06.320Z,50.6
2017-12-03T12:58:23.524Z,50.6
2017-12-03T12:58:35.826Z,50.6
2017-12-03T12:58:48.969Z,50.6
2017-12-03T12:59:06.138Z,50.6
2017-12-03T12:59:18.512Z,50.6
2017-12-03T12:59:31.701Z,50.6
2017-12-03T12:59:48.887Z,50.6
2017-12-03T13:00:01.684Z,50.6
2017-12-03T13:00:14.398Z,50.6
2017-12-03T13:00:38.110Z,50.6
2017-12-03T13:00:50.238Z,50.6
2017-12-03T13:01:03.459Z,50.6
2017-12-03T13:01:20.657Z,50.6
2017-12-03T13:01:32.954Z,50.6
2017-12-03T13:01:46.171Z,50.6
2017-12-03T13:02:03.291Z,45
2017-12-03T13:02:16.573Z,45
2017-12-03T13:02:32.679Z,45
2017-12-03T13:02:45.058Z,45
2017-12-03T13:02:58.191Z,39.4
2017-12-03T13:03:15.490Z,39.4
2017-12-03T13:03:27.808Z,39.4
2017-12-03T13:03:40.856Z,39.4
2017-12-03T13:03:58.016Z,39.4
2017-12-03T13:04:10.576Z,39.4
2017-12-03T13:04:23.665Z,39.4
2017-12-03T13:04:36.787Z,39.4
2017-12-03T13:04:49.990Z,39.4
2017-12-03T13:05:03.064Z,39.4
2017-12-03T13:05:16.269Z,45
2017-12-03T13:05:29.411Z,45
2017-12-03T13:05:42.619Z,45
2017-12-03T13:05:59.637Z,45
2017-12-03T13:06:15.966Z,45
2017-12-03T13:06:32.500Z,45
2017-12-03T13:06:44.772Z,45
2017-12-03T13:06:57.888Z,45
2017-12-03T13:07:11.023Z,45
2017-12-03T13:07:28.256Z,39.4
2017-12-03T13:07:44.522Z,39.4
2017-12-03T13:08:06.860Z,39.4
2017-12-03T13:08:19.531Z,39.4
2017-12-03T13:08:31.272Z,39.4
2017-12-03T13:08:44.554Z,39.4
2017-12-03T13:09:01.550Z,33.7
2017-12-03T13:09:14.036Z,33.7
2017-12-03T13:09:26.965Z,33.7
2017-12-03T13:09:38.561Z,33.7
2017-12-03T13:09:55.794Z,33.7
2017-12-03T13:10:11.182Z,33.7
2017-12-03T13:10:24.412Z,33.7
2017-12-03T13:10:37.536Z,33.7
2017-12-03T13:10:50.803Z,39.4
2017-12-03T13:11:04.058Z,39.4
2017-12-03T13:11:21.011Z,39.4
2017-12-03T13:11:33.431Z,39.4
2017-12-03T13:11:48.642Z,39.4
2017-12-03T13:12:01.374Z,39.4
2017-12-03T13:12:18.421Z,39.4
2017-12-03T13:12:34.983Z,39.4
2017-12-03T13:12:47.090Z,39.4
2017-12-03T13:13:02.775Z,33.7
2017-12-03T13:13:19.092Z,33.7
2017-12-03T13:13:31.396Z,33.7
2017-12-03T13:13:48.560Z,33.7
2017-12-03T13:14:01.065Z,33.7
2017-12-03T13:14:14.168Z,33.7
2017-12-03T13:14:27.265Z,33.7
2017-12-03T13:14:40.487Z,33.7
2017-12-03T13:14:53.484Z,33.7
2017-12-03T13:15:05.127Z,33.7
2017-12-03T13:15:18.327Z,33.7
2017-12-03T13:15:31.394Z,33.7
2017-12-03T13:15:48.686Z,39.4
2017-12-03T13:16:01.517Z,39.4
2017-12-03T13:16:18.099Z,39.4
2017-12-03T13:16:30.441Z,39.4
2017-12-03T13:16:43.450Z,39.4
2017-12-03T13:16:55.064Z,39.4
2017-12-03T13:17:08.240Z,39.4
2017-12-03T13:17:21.665Z,33.7
2017-12-03T13:17:34.502Z,33.7
2017-12-03T13:17:50.145Z,33.7
2017-12-03T13:18:02.479Z,33.7
2017-12-03T13:18:15.707Z,33.7
2017-12-03T13:18:28.827Z,33.7
2017-12-03T13:18:41.849Z,33.7
2017-12-03T13:18:53.464Z,33.7
2017-12-03T13:19:05.089Z,33.7
2017-12-03T13:19:18.334Z,33.7
2017-12-03T13:19:35.378Z,33.7
2017-12-03T13:19:47.652Z,33.7
2017-12-03T13:20:00.929Z,33.7
2017-12-03T13:20:14.050Z,33.7
2017-12-03T13:20:27.197Z,33.7
2017-12-03T13:20:44.259Z,33.7
2017-12-03T13:20:57.661Z,33.7
2017-12-03T13:21:09.848Z,33.7
2017-12-03T13:21:23.019Z,33.7
2017-12-03T13:21:36.163Z,33.7
2017-12-03T13:21:49.371Z,33.7
2017-12-03T13:22:02.645Z,33.7
2017-12-03T13:22:15.631Z,33.7
2017-12-03T13:22:32.832Z,33.7
2017-12-03T13:22:49.180Z,33.7
2017-12-03T13:23:05.592Z,33.7
2017-12-03T13:23:17.882Z,33.7
2017-12-03T13:23:31.058Z,33.7
2017-12-03T13:23:48.131Z,33.7
2017-12-03T13:24:00.500Z,33.7
2017-12-03T13:24:13.784Z,33.7
2017-12-03T13:24:30.992Z,33.7
2017-12-03T13:24:43.198Z,39.4
2017-12-03T13:24:56.375Z,39.4
2017-12-03T13:25:09.390Z,39.4
2017-12-03T13:25:26.550Z,39.4
2017-12-03T13:25:38.914Z,39.4
2017-12-03T13:25:52.169Z,39.4
2017-12-03T13:26:06.075Z,45
2017-12-03T13:26:18.331Z,45
2017-12-03T13:26:31.705Z,45
2017-12-03T13:26:44.672Z,45
2017-12-03T13:27:01.809Z,45
2017-12-03T13:27:18.241Z,45
2017-12-03T13:27:30.503Z,45
2017-12-03T13:27:47.663Z,45
2017-12-03T13:28:00.088Z,45
2017-12-03T13:28:13.225Z,45
2017-12-03T13:28:30.394Z,45
2017-12-03T13:28:42.828Z,45
2017-12-03T13:28:55.826Z,50.6
2017-12-03T13:29:12.973Z,50.6
2017-12-03T13:29:25.320Z,50.6
2017-12-03T13:29:42.496Z,50.6
2017-12-03T13:29:54.899Z,50.6
2017-12-03T13:30:08.817Z,50.6
2017-12-03T13:30:21.265Z,50.6
2017-12-03T13:30:37.029Z,50.6
2017-12-03T13:30:54.200Z,45
2017-12-03T13:31:07.205Z,45
2017-12-03T13:31:20.127Z,45
2017-12-03T13:31:33.312Z,45
2017-12-03T13:31:46.442Z,39.4
2017-12-03T13:31:59.593Z,39.4
2017-12-03T13:32:16.883Z,45
2017-12-03T13:32:33.364Z,45
2017-12-03T13:32:45.381Z,45
2017-12-03T13:32:57.071Z,45
2017-12-03T13:33:10.137Z,45
2017-12-03T13:33:27.380Z,45
2017-12-03T13:33:43.648Z,45
2017-12-03T13:33:56.107Z,45
2017-12-03T13:34:09.193Z,45
2017-12-03T13:34:22.363Z,45
2017-12-03T13:34:35.475Z,45
2017-12-03T13:34:48.662Z,45
2017-12-03T13:35:01.829Z,45
2017-12-03T13:35:14.885Z,45
2017-12-03T13:35:28.145Z,45
2017-12-03T13:35:41.184Z,45
2017-12-03T13:35:54.424Z,45
2017-12-03T13:36:11.568Z,45
2017-12-03T13:36:23.930Z,39.4
2017-12-03T13:36:40.996Z,39.4
2017-12-03T13:36:53.451Z,39.4
2017-12-03T13:37:06.695Z,39.4
2017-12-03T13:37:19.890Z,39.4
2017-12-03T13:37:36.850Z,39.4
2017-12-03T13:37:49.222Z,39.4
2017-12-03T13:38:02.481Z,39.4
2017-12-03T13:38:19.599Z,39.4
2017-12-03T13:38:35.918Z,39.4
2017-12-03T13:38:52.210Z,39.4
2017-12-03T13:39:08.547Z,39.4
2017-12-03T13:39:20.866Z,39.4
2017-12-03T13:39:38.106Z,33.7
2017-12-03T13:39:50.434Z,33.7
2017-12-03T13:40:03.676Z,33.7
2017-12-03T13:40:20.776Z,33.7
2017-12-03T13:40:33.142Z,33.7
2017-12-03T13:40:46.319Z,33.7
2017-12-03T13:40:59.471Z,33.7
2017-12-03T13:41:12.754Z,33.7
2017-12-03T13:41:25.676Z,33.7
2017-12-03T13:41:38.786Z,33.7
2017-12-03T13:41:50.514Z,33.7
2017-12-03T13:42:03.593Z,33.7
2017-12-03T13:42:16.706Z,33.7
2017-12-03T13:42:29.851Z,33.7
2017-12-03T13:42:43.070Z,33.7
2017-12-03T13:42:56.352Z,33.7
2017-12-03T13:43:09.271Z,33.7
2017-12-03T13:43:22.550Z,33.7
2017-12-03T13:43:35.541Z,33.7
2017-12-03T13:43:47.157Z,33.7
2017-12-03T13:44:04.418Z,33.7
2017-12-03T13:44:16.695Z,33.7
2017-12-03T13:44:29.837Z,33.7
2017-12-03T13:44:42.919Z,33.7
2017-12-03T13:45:00.154Z,33.7
2017-12-03T13:45:16.651Z,39.4
2017-12-03T13:45:32.813Z,39.4
2017-12-03T13:45:45.206Z,39.4
2017-12-03T13:46:02.531Z,39.4
2017-12-03T13:46:14.708Z,39.4
2017-12-03T13:46:27.847Z,39.4
2017-12-03T13:46:40.957Z,39.4
2017-12-03T13:46:56.584Z,39.4
2017-12-03T13:47:10.430Z,39.4
2017-12-03T13:47:23.639Z,39.4
2017-12-03T13:47:36.248Z,33.7
2017-12-03T13:47:48.323Z,33.7
2017-12-03T13:47:59.940Z,33.7
2017-12-03T13:48:17.029Z,33.7
2017-12-03T13:48:29.400Z,33.7
2017-12-03T13:48:40.940Z,33.7
2017-12-03T13:48:52.440Z,33.7
2017-12-03T13:49:04.036Z,33.7
2017-12-03T13:49:19.731Z,33.7
2017-12-03T13:49:32.079Z,33.7
2017-12-03T13:49:45.150Z,33.7
2017-12-03T13:49:58.296Z,33.7
2017-12-03T13:50:11.591Z,33.7
2017-12-03T13:50:28.597Z,33.7
2017-12-03T13:50:44.992Z,33.7
2017-12-03T13:50:57.329Z,33.7
2017-12-03T13:51:10.526Z,33.7
2017-12-03T13:51:23.594Z,33.7
2017-12-03T13:51:35.182Z,33.7
2017-12-03T13:51:48.367Z,33.7
2017-12-03T13:52:01.559Z,33.7
2017-12-03T13:52:14.647Z,33.7
2017-12-03T13:52:27.898Z,33.7
2017-12-03T13:52:41.065Z,33.7
2017-12-03T13:52:54.103Z,33.7
2017-12-03T13:53:07.326Z,33.7
2017-12-03T13:53:20.427Z,33.7
2017-12-03T13:53:33.560Z,28.1
2017-12-03T13:53:46.780Z,28.1
2017-12-03T13:53:59.849Z,28.1
2017-12-03T13:54:13.011Z,33.7
2017-12-03T13:54:26.228Z,33.7
2017-12-03T13:54:39.298Z,33.7
2017-12-03T13:54:56.416Z,33.7
2017-12-03T13:55:08.790Z,33.7
2017-12-03T13:55:25.924Z,33.7
2017-12-03T13:55:38.356Z,33.7
2017-12-03T13:55:52.633Z,33.7
2017-12-03T13:56:04.573Z,33.7
2017-12-03T13:56:17.677Z,33.7
2017-12-03T13:56:29.251Z,33.7
2017-12-03T13:56:43.414Z,33.7
2017-12-03T13:56:59.771Z,33.7
2017-12-03T13:57:11.950Z,33.7
2017-12-03T13:57:25.092Z,33.7
2017-12-03T13:57:38.213Z,33.7
2017-12-03T13:57:55.345Z,33.7
2017-12-03T13:58:07.887Z,33.7
2017-12-03T13:58:20.992Z,33.7
2017-12-03T13:58:34.238Z,33.7
2017-12-03T13:58:51.173Z,33.7
2017-12-03T13:59:07.535Z,33.7
2017-12-03T13:59:19.937Z,33.7
2017-12-03T13:59:33.035Z,33.7
2017-12-03T13:59:44.636Z,33.7
2017-12-03T13:59:57.740Z,33.7
2017-12-03T14:00:10.996Z,33.7
2017-12-03T14:00:24.211Z,33.7
2017-12-03T14:00:54.779Z,33.7
2017-12-03T14:01:08.084Z,33.7
2017-12-03T14:01:25.212Z,33.7
2017-12-03T14:01:41.585Z,33.7
2017-12-03T14:01:54.012Z,33.7
2017-12-03T14:02:11.017Z,39.4
2017-12-03T14:02:23.663Z,39.4
2017-12-03T14:02:40.937Z,39.4
2017-12-03T14:02:52.937Z,39.4
2017-12-03T14:03:06.056Z,39.4
2017-12-03T14:03:19.309Z,39.4
2017-12-03T14:03:32.546Z,39.4
2017-12-03T14:03:49.555Z,39.4
2017-12-03T14:04:01.960Z,39.4
2017-12-03T14:04:19.265Z,39.4
2017-12-03T14:04:31.412Z,39.4
2017-12-03T14:04:45.421Z,39.4
2017-12-03T14:04:57.879Z,39.4
2017-12-03T14:05:14.720Z,39.4
2017-12-03T14:05:27.063Z,39.4
2017-12-03T14:05:40.314Z,39.4
2017-12-03T14:05:53.623Z,39.4
2017-12-03T14:06:06.707Z,39.4
2017-12-03T14:06:23.912Z,39.4
2017-12-03T14:06:36.354Z,33.7
2017-12-03T14:06:49.485Z,33.7
2017-12-03T14:07:06.576Z,33.7
2017-12-03T14:07:19.108Z,33.7
2017-12-03T14:07:36.008Z,33.7
2017-12-03T14:07:48.479Z,33.7
2017-12-03T14:08:05.729Z,33.7
2017-12-03T14:08:18.168Z,33.7
2017-12-03T14:08:31.206Z,33.7
2017-12-03T14:08:44.147Z,33.7
2017-12-03T14:08:57.361Z,33.7
2017-12-03T14:09:10.486Z,33.7
2017-12-03T14:09:27.700Z,33.7
2017-12-03T14:09:40.010Z,33.7
2017-12-03T14:09:57.236Z,33.7
2017-12-03T14:10:13.533Z,33.7
2017-12-03T14:10:29.907Z,28.1
2017-12-03T14:14:59.575Z,28.1
2017-12-03T14:15:12.990Z,28.1
2017-12-03T14:15:26.491Z,28.1
2017-12-03T14:15:41.046Z,28.1
2017-12-03T14:15:54.017Z,28.1
2017-12-03T14:16:07.156Z,28.1
2017-12-03T14:16:20.356Z,28.1
2017-12-03T14:16:37.638Z,28.1
2017-12-03T14:16:49.767Z,28.1
2017-12-03T14:17:02.914Z,28.1
2017-12-03T14:17:16.132Z,28.1
2017-12-03T14:17:33.141Z,28.1
2017-12-03T14:17:45.649Z,28.1
2017-12-03T14:18:02.708Z,28.1
2017-12-03T14:18:15.095Z,28.1
2017-12-03T14:18:28.297Z,28.1
2017-12-03T14:18:41.483Z,28.1
2017-12-03T14:18:55.639Z,28.1
2017-12-03T14:19:07.731Z,28.1
2017-12-03T14:19:20.845Z,28.1
2017-12-03T14:19:33.954Z,28.1
2017-12-03T14:19:47.349Z,22.5
2017-12-03T14:20:00.450Z,22.5
2017-12-03T14:20:17.621Z,22.5
2017-12-03T14:20:29.658Z,22.5
2017-12-03T14:20:46.958Z,22.5
2017-12-03T14:20:59.315Z,22.5
2017-12-03T14:21:12.530Z,22.5
2017-12-03T14:21:29.627Z,22.5
2017-12-03T14:21:45.938Z,22.5
2017-12-03T14:21:58.259Z,22.5
2017-12-03T14:22:15.709Z,22.5
2017-12-03T14:22:27.995Z,22.5
2017-12-03T14:22:40.936Z,22.5
2017-12-03T14:22:54.121Z,22.5
2017-12-03T14:23:11.279Z,22.5
2017-12-03T14:23:27.801Z,22.5
2017-12-03T14:23:39.918Z,22.5
2017-12-03T14:23:53.098Z,22.5
2017-12-03T14:24:06.549Z,22.5
2017-12-03T14:24:19.373Z,22.5
2017-12-03T14:24:32.645Z,22.5
2017-12-03T14:24:49.788Z,22.5
2017-12-03T14:25:13.134Z,22.5
2017-12-03T14:25:25.179Z,22.5
2017-12-03T14:25:38.757Z,22.5
2017-12-03T14:25:51.230Z,22.5
2017-12-03T14:26:04.382Z,22.5
2017-12-03T14:26:17.485Z,22.5
2017-12-03T14:26:34.608Z,22.5
2017-12-03T14:26:51.222Z,22.5
2017-12-03T14:27:03.434Z,22.5
2017-12-03T14:27:20.633Z,16.9
2017-12-03T14:27:32.961Z,16.9
2017-12-03T14:27:46.030Z,16.9
2017-12-03T14:27:59.266Z,16.9
2017-12-03T14:28:16.418Z,16.9
2017-12-03T14:28:28.845Z,16.9
2017-12-03T14:28:41.955Z,16.9
2017-12-03T14:28:59.065Z,16.9
2017-12-03T14:29:15.597Z,16.9
2017-12-03T14:29:28.862Z,16.9
2017-12-03T14:29:40.967Z,16.9
2017-12-03T14:29:54.085Z,16.9
2017-12-03T14:30:07.252Z,16.9
2017-12-03T14:30:20.402Z,16.9
2017-12-03T14:30:33.370Z,16.9
2017-12-03T14:30:45.107Z,16.9
2017-12-03T14:30:58.347Z,16.9
2017-12-03T14:31:11.934Z,16.9
2017-12-03T14:31:24.572Z,16.9
2017-12-03T14:31:37.704Z,16.9
2017-12-03T14:31:51.112Z,16.9
2017-12-03T14:32:03.915Z,16.9
2017-12-03T14:32:15.467Z,16.9
2017-12-03T14:32:27.141Z,16.9
2017-12-03T14:32:44.188Z,16.9
2017-12-03T14:32:56.508Z,16.9
2017-12-03T14:33:09.731Z,16.9
2017-12-03T14:33:23.068Z,16.9
2017-12-03T14:33:35.973Z,16.9
2017-12-03T14:33:51.543Z,16.9